createdAt,value
2022-11-01T00:00:08.403Z,16.48
2022-11-01T00:02:59.930Z,16.44
2022-11-01T00:05:48.286Z,16.45
2022-11-01T00:08:44.628Z,16.46
2022-11-01T00:11:43.637Z,16.44
2022-11-01T00:14:39.632Z,16.43
2022-11-01T00:17:30.590Z,16.40
2022-11-01T00:20:21.295Z,16.42
2022-11-01T00:23:14.180Z,16.42
2022-11-01T00:26:01.573Z,16.42
2022-11-01T00:28:52.664Z,16.38
2022-11-01T00:31:41.774Z,16.42
2022-11-01T00:34:29.631Z,16.39
2022-11-01T00:37:17.374Z,16.40
2022-11-01T00:40:05.428Z,16.38
2022-11-01T00:42:55.816Z,16.35
2022-11-01T00:46:13.760Z,16.36
2022-11-01T00:49:02.766Z,16.34
2022-11-01T00:51:52.298Z,16.33
2022-11-01T00:54:40.003Z,16.30
2022-11-01T00:57:27.603Z,16.30
2022-11-01T01:00:17.280Z,16.29
2022-11-01T01:03:05.710Z,16.27
2022-11-01T01:05:56.102Z,16.26
2022-11-01T01:08:43.943Z,16.24
2022-11-01T01:11:31.737Z,16.22
2022-11-01T01:14:19.510Z,16.21
2022-11-01T01:17:06.826Z,16.21
2022-11-01T01:19:57.525Z,16.17
2022-11-01T01:22:46.438Z,16.17
2022-11-01T01:25:34.628Z,16.14
2022-11-01T01:28:22.225Z,16.10
2022-11-01T01:31:10.810Z,16.13
2022-11-01T01:33:59.944Z,16.12
2022-11-01T01:36:48.777Z,16.11
2022-11-01T01:39:40.384Z,16.10
2022-11-01T01:42:34.406Z,16.10
2022-11-01T01:45:34.524Z,16.08
2022-11-01T01:48:26.078Z,16.03
2022-11-01T01:51:19.142Z,16.03
2022-11-01T01:54:07.177Z,16.02
2022-11-01T01:56:56.382Z,16.03
2022-11-01T01:59:43.847Z,16.00
2022-11-01T02:02:31.522Z,16.00
2022-11-01T02:05:30.744Z,15.99
2022-11-01T02:08:26.752Z,15.96
2022-11-01T02:11:17.194Z,15.96
2022-11-01T02:14:06.824Z,15.92
2022-11-01T02:17:07.093Z,15.91
2022-11-01T02:20:44.485Z,15.90
2022-11-01T02:24:12.008Z,15.88
2022-11-01T02:27:27.602Z,15.87
2022-11-01T02:30:19.038Z,15.85
2022-11-01T02:33:22.572Z,15.83
2022-11-01T02:36:22.217Z,15.81
2022-11-01T02:39:22.263Z,15.80
2022-11-01T02:42:16.275Z,15.76
2022-11-01T02:45:10.717Z,15.76
2022-11-01T02:48:00.195Z,15.75
2022-11-01T02:50:55.539Z,15.73
2022-11-01T02:53:42.921Z,15.73
2022-11-01T02:56:31.600Z,15.71
2022-11-01T02:59:25.836Z,15.71
2022-11-01T03:02:21.431Z,15.68
2022-11-01T03:05:16.313Z,15.68
2022-11-01T03:08:08.178Z,15.66
2022-11-01T03:11:08.110Z,15.62
2022-11-01T03:14:02.366Z,15.60
2022-11-01T03:17:00.695Z,15.60
2022-11-01T03:19:53.648Z,15.60
2022-11-01T03:22:45.289Z,15.56
2022-11-01T03:25:40.279Z,15.56
2022-11-01T03:28:34.711Z,15.54
2022-11-01T03:31:27.145Z,15.55
2022-11-01T03:34:18.461Z,15.54
2022-11-01T03:37:12.496Z,15.52
2022-11-01T03:40:05.563Z,15.49
2022-11-01T03:43:01.569Z,15.48
2022-11-01T03:45:50.078Z,15.47
2022-11-01T03:48:42.806Z,15.46
2022-11-01T03:51:30.663Z,15.39
2022-11-01T03:54:17.949Z,15.44
2022-11-01T03:57:05.720Z,15.41
2022-11-01T03:59:58.061Z,15.39
2022-11-01T04:03:15.778Z,15.41
2022-11-01T04:06:06.893Z,15.38
2022-11-01T04:08:54.283Z,15.37
2022-11-01T04:11:43.766Z,15.34
2022-11-01T04:14:50.648Z,15.31
2022-11-01T04:17:58.870Z,15.33
2022-11-01T04:20:46.749Z,15.29
2022-11-01T04:23:38.690Z,15.31
2022-11-01T04:26:26.808Z,15.28
2022-11-01T04:29:15.343Z,15.28
2022-11-01T04:32:04.852Z,15.27
2022-11-01T04:34:54.079Z,15.25
2022-11-01T04:37:41.654Z,15.24
2022-11-01T04:40:32.302Z,15.20
2022-11-01T04:43:22.907Z,15.21
2022-11-01T04:46:10.746Z,15.20
2022-11-01T04:48:58.468Z,15.18
2022-11-01T04:51:47.648Z,15.15
2022-11-01T04:54:39.120Z,15.15
2022-11-01T04:57:26.651Z,15.15
2022-11-01T05:00:21.783Z,15.12
2022-11-01T05:03:13.181Z,15.12
2022-11-01T05:06:01.692Z,15.12
2022-11-01T05:08:59.620Z,15.10
2022-11-01T05:11:49.864Z,15.07
2022-11-01T05:14:41.103Z,15.00
2022-11-01T05:17:34.521Z,15.01
2022-11-01T05:20:22.212Z,15.05
2022-11-01T05:23:11.287Z,15.04
2022-11-01T05:26:00.357Z,15.04
2022-11-01T05:28:48.467Z,15.03
2022-11-01T05:31:36.321Z,15.02
2022-11-01T05:34:24.108Z,14.98
2022-11-01T05:37:12.522Z,14.98
2022-11-01T05:40:00.179Z,14.98
2022-11-01T05:42:49.429Z,14.98
2022-11-01T05:45:41.068Z,14.93
2022-11-01T05:48:28.712Z,14.97
2022-11-01T05:51:16.286Z,14.97
2022-11-01T05:54:04.341Z,14.96
2022-11-01T05:57:33.279Z,14.95
2022-11-01T06:00:32.251Z,14.94
2022-11-01T06:03:32.081Z,14.95
2022-11-01T06:13:51.110Z,14.93
2022-11-01T06:16:41.298Z,14.91
2022-11-01T06:19:28.874Z,14.92
2022-11-01T06:22:17.538Z,14.91
2022-11-01T06:25:22.356Z,14.94
2022-11-01T06:28:19.302Z,14.94
2022-11-01T06:31:15.829Z,14.94
2022-11-01T06:34:09.551Z,14.94
2022-11-01T06:36:56.968Z,14.90
2022-11-01T06:39:44.876Z,14.96
2022-11-01T06:42:32.527Z,14.97
2022-11-01T06:45:19.761Z,14.98
2022-11-01T06:48:08.069Z,15.00
2022-11-01T06:50:57.337Z,15.01
2022-11-01T06:53:44.953Z,15.01
2022-11-01T06:56:56.916Z,15.04
2022-11-01T06:59:44.249Z,15.06
2022-11-01T07:02:32.212Z,15.11
2022-11-01T07:05:20.415Z,15.10
2022-11-01T07:08:12.943Z,15.15
2022-11-01T07:11:02.639Z,15.18
2022-11-01T07:13:50.343Z,15.21
2022-11-01T07:16:40.834Z,15.22
2022-11-01T07:19:28.473Z,15.23
2022-11-01T07:22:16.373Z,15.26
2022-11-01T07:25:07.071Z,15.29
2022-11-01T07:28:02.277Z,15.30
2022-11-01T07:30:49.915Z,15.32
2022-11-01T07:33:37.920Z,15.33
2022-11-01T07:36:35.978Z,15.34
2022-11-01T07:39:23.907Z,15.35
2022-11-01T07:42:22.516Z,15.38
2022-11-01T07:45:41.726Z,15.40
2022-11-01T07:48:39.312Z,15.43
2022-11-01T07:51:28.103Z,15.48
2022-11-01T07:54:21.468Z,15.48
2022-11-01T07:57:09.524Z,15.56
2022-11-01T07:59:58.574Z,15.59
2022-11-01T08:02:46.061Z,15.61
2022-11-01T08:05:40.484Z,15.67
2022-11-01T08:08:28.340Z,15.70
2022-11-01T08:11:15.907Z,15.78
2022-11-01T08:14:11.168Z,15.85
2022-11-01T08:17:03.797Z,15.91
2022-11-01T08:19:51.112Z,15.99
2022-11-01T08:22:41.081Z,16.04
2022-11-01T08:25:32.663Z,16.08
2022-11-01T08:28:22.819Z,16.12
2022-11-01T08:31:18.154Z,16.15
2022-11-01T08:34:16.894Z,16.16
2022-11-01T08:37:06.675Z,16.26
2022-11-01T08:40:13.120Z,16.31
2022-11-01T08:44:44.435Z,16.36
2022-11-01T08:48:13.594Z,16.39
2022-11-01T08:51:08.357Z,16.47
2022-11-01T08:54:11.054Z,16.46
2022-11-01T08:56:58.755Z,16.58
2022-11-01T08:59:46.333Z,16.73
2022-11-01T09:02:34.957Z,16.86
2022-11-01T09:05:35.194Z,16.97
2022-11-01T09:08:49.819Z,17.07
2022-11-01T09:11:56.399Z,17.22
2022-11-01T09:14:58.162Z,17.42
2022-11-01T09:17:46.039Z,17.65
2022-11-01T09:20:33.940Z,17.88
2022-11-01T09:23:33.329Z,18.12
2022-11-01T09:26:20.770Z,18.30
2022-11-01T09:30:01.183Z,18.42
2022-11-01T09:32:50.911Z,18.62
2022-11-01T09:35:38.931Z,18.83
2022-11-01T09:38:37.784Z,18.99
2022-11-01T09:41:39.047Z,19.13
2022-11-01T09:44:34.013Z,19.26
2022-11-01T09:47:24.295Z,19.40
2022-11-01T09:50:22.769Z,19.51
2022-11-01T09:53:30.501Z,19.60
2022-11-01T09:56:30.616Z,19.75
2022-11-01T09:59:39.526Z,19.89
2022-11-01T10:03:21.862Z,20.06
2022-11-01T10:06:18.130Z,20.20
2022-11-01T10:09:13.322Z,20.34
2022-11-01T10:12:14.847Z,20.40
2022-11-01T10:15:26.407Z,20.45
2022-11-01T10:18:28.986Z,20.44
2022-11-01T10:21:18.770Z,20.39
2022-11-01T10:24:09.206Z,20.36
2022-11-01T10:27:06.804Z,20.29
2022-11-01T10:30:03.000Z,20.23
2022-11-01T10:32:55.228Z,20.19
2022-11-01T10:35:46.733Z,20.19
2022-11-01T10:39:10.712Z,20.19
2022-11-01T10:41:53.128Z,20.17
2022-11-01T10:44:46.781Z,20.16
2022-11-01T10:47:34.471Z,20.14
2022-11-01T10:50:27.122Z,20.12
2022-11-01T10:56:13.326Z,20.06
2022-11-01T10:59:04.254Z,20.01
2022-11-01T11:01:55.063Z,19.92
2022-11-01T11:04:43.108Z,19.84
2022-11-01T11:07:34.397Z,19.75
2022-11-01T11:10:26.780Z,19.68
2022-11-01T11:13:20.860Z,19.59
2022-11-01T11:16:15.895Z,19.50
2022-11-01T11:19:19.597Z,19.44
2022-11-01T11:22:15.772Z,19.39
2022-11-01T11:25:04.614Z,19.35
2022-11-01T11:27:54.037Z,19.31
2022-11-01T11:30:41.825Z,19.28
2022-11-01T11:33:29.964Z,19.24
2022-11-01T11:36:19.658Z,19.21
2022-11-01T11:39:08.991Z,19.16
2022-11-01T11:42:21.175Z,19.11
2022-11-01T11:45:27.336Z,19.06
2022-11-01T11:48:26.751Z,18.99
2022-11-01T11:51:14.478Z,18.93
2022-11-01T11:54:21.974Z,18.87
2022-11-01T11:57:12.308Z,18.82
2022-11-01T12:00:05.737Z,18.79
2022-11-01T12:03:07.082Z,18.76
2022-11-01T12:05:59.949Z,18.72
2022-11-01T12:08:50.389Z,18.69
2022-11-01T12:11:47.815Z,18.65
2022-11-01T12:14:41.773Z,18.64
2022-11-01T12:17:36.751Z,18.62
2022-11-01T12:20:25.353Z,18.55
2022-11-01T12:23:26.830Z,18.55
2022-11-01T12:26:17.774Z,18.51
2022-11-01T12:29:18.605Z,18.52
2022-11-01T12:32:15.775Z,18.50
2022-11-01T12:35:18.208Z,18.47
2022-11-01T12:38:37.189Z,18.47
2022-11-01T12:41:35.307Z,18.45
2022-11-01T12:44:35.893Z,18.43
2022-11-01T12:47:31.908Z,18.42
2022-11-01T12:50:23.780Z,18.41
2022-11-01T12:53:19.088Z,18.39
2022-11-01T12:56:08.288Z,18.36
2022-11-01T12:58:58.402Z,18.37
2022-11-01T13:02:00.956Z,18.35
2022-11-01T13:04:58.615Z,18.33
2022-11-01T13:08:00.099Z,18.30
2022-11-01T13:10:50.333Z,18.27
2022-11-01T13:13:46.726Z,18.26
2022-11-01T13:16:43.703Z,18.22
2022-11-01T13:19:43.413Z,18.21
2022-11-01T13:22:39.502Z,18.17
2022-11-01T13:25:38.415Z,18.14
2022-11-01T13:28:48.955Z,18.12
2022-11-01T13:31:51.435Z,18.08
2022-11-01T13:34:52.491Z,18.06
2022-11-01T13:37:47.283Z,18.00
2022-11-01T13:40:42.272Z,17.98
2022-11-01T13:43:38.855Z,17.96
2022-11-01T13:47:15.218Z,17.94
2022-11-01T13:50:33.604Z,17.91
2022-11-01T13:53:29.595Z,17.89
2022-11-01T13:56:25.309Z,17.87
2022-11-01T13:59:29.738Z,17.90
2022-11-01T14:02:56.402Z,17.89
2022-11-01T14:05:48.555Z,17.86
2022-11-01T14:08:39.883Z,17.85
2022-11-01T14:11:49.103Z,17.85
2022-11-01T14:14:53.634Z,17.84
2022-11-01T14:18:08.492Z,17.81
2022-11-01T14:20:59.547Z,17.79
2022-11-01T14:23:51.284Z,17.78
2022-11-01T14:26:49.583Z,17.76
2022-11-01T14:29:39.056Z,17.76
2022-11-01T14:32:31.407Z,17.72
2022-11-01T14:35:26.678Z,17.70
2022-11-01T14:38:18.584Z,17.65
2022-11-01T14:41:08.394Z,17.63
2022-11-01T14:46:54.923Z,17.60
2022-11-01T14:49:45.563Z,17.57
2022-11-01T14:52:41.810Z,17.56
2022-11-01T14:55:36.492Z,17.53
2022-11-01T14:58:25.331Z,17.52
2022-11-01T15:01:17.745Z,17.49
2022-11-01T15:04:05.990Z,17.49
2022-11-01T15:06:54.061Z,17.47
2022-11-01T15:09:41.891Z,17.42
2022-11-01T15:12:35.837Z,17.44
2022-11-01T15:15:27.178Z,17.41
2022-11-01T15:18:18.638Z,17.39
2022-11-01T15:21:08.553Z,17.37
2022-11-01T15:23:58.031Z,17.35
2022-11-01T15:26:45.718Z,17.35
2022-11-01T15:29:37.246Z,17.33
2022-11-01T15:32:29.904Z,17.29
2022-11-01T15:35:25.558Z,17.29
2022-11-01T15:38:21.177Z,17.26
2022-11-01T15:41:28.038Z,17.25
2022-11-01T15:44:22.779Z,17.19
2022-11-01T15:47:19.738Z,17.18
2022-11-01T15:50:10.189Z,17.17
2022-11-01T15:53:04.129Z,17.14
2022-11-01T15:56:00.504Z,17.14
2022-11-01T15:58:53.884Z,17.12
2022-11-01T16:01:42.094Z,17.10
2022-11-01T16:04:40.957Z,17.08
2022-11-01T16:07:33.439Z,17.06
2022-11-01T16:10:25.145Z,17.01
2022-11-01T16:13:20.857Z,17.02
2022-11-01T16:16:11.136Z,16.98
2022-11-01T16:18:58.950Z,16.99
2022-11-01T16:21:50.802Z,16.97
2022-11-01T16:24:43.214Z,16.95
2022-11-01T16:27:31.156Z,16.93
2022-11-01T16:30:46.466Z,16.93
2022-11-01T16:33:46.061Z,16.90
2022-11-01T16:36:38.753Z,16.88
2022-11-01T16:39:31.289Z,16.87
2022-11-01T16:42:20.409Z,16.86
2022-11-01T16:45:14.047Z,16.84
2022-11-01T16:48:01.966Z,16.83
2022-11-01T16:50:49.976Z,16.84
2022-11-01T16:53:37.734Z,16.83
2022-11-01T16:56:37.727Z,16.83
2022-11-01T16:59:32.254Z,16.82
2022-11-01T17:02:23.223Z,16.79
2022-11-01T17:05:21.545Z,16.77
2022-11-01T17:08:14.357Z,16.78
2022-11-01T17:11:02.002Z,16.77
2022-11-01T17:13:50.982Z,16.75
2022-11-01T17:16:39.784Z,16.76
2022-11-01T17:19:33.148Z,16.78
2022-11-01T17:22:26.024Z,16.77
2022-11-01T17:25:21.833Z,16.74
2022-11-01T17:28:09.545Z,16.75
2022-11-01T17:30:58.803Z,16.75
2022-11-01T17:33:46.231Z,16.73
2022-11-01T17:36:36.419Z,16.72
2022-11-01T17:39:25.237Z,16.72
2022-11-01T17:42:13.018Z,16.73
2022-11-01T17:45:00.794Z,16.70
2022-11-01T17:47:54.724Z,16.71
2022-11-01T17:50:44.360Z,16.72
2022-11-01T17:53:32.241Z,16.68
2022-11-01T17:56:19.954Z,16.68
2022-11-01T17:59:08.821Z,16.68
2022-11-01T18:01:56.240Z,16.69
2022-11-01T18:04:46.910Z,16.67
2022-11-01T18:07:40.608Z,16.66
2022-11-01T18:10:40.450Z,16.67
2022-11-01T18:13:47.950Z,16.66
2022-11-01T18:16:45.161Z,16.66
2022-11-01T18:19:49.597Z,16.64
2022-11-01T18:22:49.116Z,16.62
2022-11-01T18:25:41.553Z,16.64
2022-11-01T18:28:32.477Z,16.62
2022-11-01T18:31:30.856Z,16.63
2022-11-01T18:34:32.093Z,16.63
2022-11-01T18:37:29.623Z,16.63
2022-11-01T18:40:24.792Z,16.62
2022-11-01T18:43:12.361Z,16.62
2022-11-01T18:49:13.787Z,16.62
2022-11-01T18:52:02.556Z,16.63
2022-11-01T18:54:56.569Z,16.62
2022-11-01T18:57:44.709Z,16.61
2022-11-01T19:00:32.541Z,16.62
2022-11-01T19:03:30.223Z,16.63
2022-11-01T19:06:22.293Z,16.62
2022-11-01T19:09:23.214Z,16.62
2022-11-01T19:12:17.454Z,16.61
2022-11-01T19:15:25.739Z,16.61
2022-11-01T19:18:22.965Z,16.63
2022-11-01T19:21:47.921Z,16.62
2022-11-01T19:24:40.737Z,16.58
2022-11-01T19:27:43.820Z,16.55
2022-11-01T19:30:38.433Z,16.50
2022-11-01T19:33:37.345Z,16.59
2022-11-01T19:39:42.214Z,16.53
2022-11-01T19:42:33.568Z,16.56
2022-11-01T19:45:34.656Z,16.57
2022-11-01T19:48:24.563Z,16.51
2022-11-01T19:51:18.115Z,16.56
2022-11-01T19:54:18.454Z,16.54
2022-11-01T19:57:19.221Z,16.55
2022-11-01T20:00:25.226Z,16.55
2022-11-01T20:03:24.920Z,16.53
2022-11-01T20:06:21.418Z,16.48
2022-11-01T20:09:17.933Z,16.54
2022-11-01T20:12:06.637Z,16.52
2022-11-01T20:14:54.778Z,16.52
2022-11-01T20:20:35.682Z,16.45
2022-11-01T20:23:27.366Z,16.51
2022-11-01T20:26:15.484Z,16.47
2022-11-01T20:29:03.317Z,16.49
2022-11-01T20:31:50.905Z,16.46
2022-11-01T20:34:43.076Z,16.47
2022-11-01T20:37:30.963Z,16.46
2022-11-01T20:40:18.996Z,16.44
2022-11-01T20:43:07.660Z,16.38
2022-11-01T20:45:55.058Z,16.43
2022-11-01T20:48:42.850Z,16.42
2022-11-01T20:51:32.201Z,16.40
2022-11-01T20:54:19.825Z,16.40
2022-11-01T20:57:28.508Z,16.39
2022-11-01T21:00:18.991Z,16.36
2022-11-01T21:03:15.387Z,16.33
2022-11-01T21:06:03.260Z,16.35
2022-11-01T21:08:56.292Z,16.32
2022-11-01T21:11:47.337Z,16.29
2022-11-01T21:14:38.191Z,16.25
2022-11-01T21:17:28.884Z,16.27
2022-11-01T21:20:24.874Z,16.28
2022-11-01T21:23:27.200Z,16.27
2022-11-01T21:26:20.391Z,16.27
2022-11-01T21:29:32.739Z,16.25
2022-11-01T21:32:44.117Z,16.13
2022-11-01T21:35:42.854Z,16.23
2022-11-01T21:38:41.220Z,16.18
2022-11-01T21:41:34.815Z,16.17
2022-11-01T21:44:31.002Z,16.19
2022-11-01T21:47:22.837Z,16.20
2022-11-01T21:50:13.370Z,16.10
2022-11-01T21:53:01.550Z,16.17
2022-11-01T21:55:50.412Z,16.15
2022-11-01T21:58:39.758Z,16.16
2022-11-01T22:01:27.311Z,16.15
2022-11-01T22:04:18.195Z,16.11
2022-11-01T22:07:08.712Z,16.10
2022-11-01T22:09:59.658Z,16.11
2022-11-01T22:12:47.506Z,16.08
2022-11-01T22:15:38.763Z,16.08
2022-11-01T22:18:26.503Z,16.06
2022-11-01T22:21:14.297Z,16.01
2022-11-01T22:24:03.280Z,16.04
2022-11-01T22:26:51.319Z,15.98
2022-11-01T22:29:39.587Z,16.03
2022-11-01T22:32:29.461Z,16.00
2022-11-01T22:35:16.838Z,15.98
2022-11-01T22:38:17.122Z,15.99
2022-11-01T22:41:15.478Z,15.96
2022-11-01T22:44:11.424Z,15.96
2022-11-01T22:47:02.101Z,15.94
2022-11-01T22:50:04.775Z,15.92
2022-11-01T22:52:52.463Z,15.90
2022-11-01T22:55:44.411Z,15.86
2022-11-01T22:58:36.424Z,15.88
2022-11-01T23:01:30.634Z,15.85
2022-11-01T23:04:24.245Z,15.82
2022-11-01T23:07:31.252Z,15.82
2022-11-01T23:10:31.986Z,15.79
2022-11-01T23:13:43.936Z,15.80
2022-11-01T23:16:39.552Z,15.69
2022-11-01T23:19:29.692Z,15.68
2022-11-01T23:22:21.502Z,15.76
2022-11-01T23:25:11.637Z,15.73
2022-11-01T23:28:05.551Z,15.66
2022-11-01T23:30:59.562Z,15.70
2022-11-01T23:33:49.387Z,15.68
2022-11-01T23:36:40.431Z,15.70
2022-11-01T23:39:35.864Z,15.62
2022-11-01T23:42:26.491Z,15.63
2022-11-01T23:45:29.420Z,15.68
2022-11-01T23:48:17.031Z,15.65
2022-11-01T23:51:05.935Z,15.66
2022-11-01T23:53:55.984Z,15.64
2022-11-01T23:56:52.615Z,15.55
2022-11-01T23:59:40.960Z,15.62
